sensor_id;sensor_type;location;lat;lon;timestamp;temperature;humidity
15121;DHT22;7661;48.904;9.414;2022-09-03T00:00:25;18.50;76.60
15121;DHT22;7661;48.904;9.414;2022-09-03T00:02:57;18.50;76.70
15121;DHT22;7661;48.904;9.414;2022-09-03T00:05:31;18.50;77.00
15121;DHT22;7661;48.904;9.414;2022-09-03T00:08:04;18.50;77.00
15121;DHT22;7661;48.904;9.414;2022-09-03T00:10:40;18.40;77.50
15121;DHT22;7661;48.904;9.414;2022-09-03T00:13:14;18.40;77.30
15121;DHT22;7661;48.904;9.414;2022-09-03T00:15:43;18.30;77.80
15121;DHT22;7661;48.904;9.414;2022-09-03T00:18:13;18.40;77.40
15121;DHT22;7661;48.904;9.414;2022-09-03T00:20:45;18.50;77.40
15121;DHT22;7661;48.904;9.414;2022-09-03T00:23:18;18.50;77.40
15121;DHT22;7661;48.904;9.414;2022-09-03T00:25:49;18.50;77.50
15121;DHT22;7661;48.904;9.414;2022-09-03T00:28:21;18.50;77.50
15121;DHT22;7661;48.904;9.414;2022-09-03T00:30:55;18.50;77.80
15121;DHT22;7661;48.904;9.414;2022-09-03T00:33:26;18.50;77.80
15121;DHT22;7661;48.904;9.414;2022-09-03T00:36:04;18.50;78.50
15121;DHT22;7661;48.904;9.414;2022-09-03T00:38:33;18.50;78.10
15121;DHT22;7661;48.904;9.414;2022-09-03T00:41:07;18.50;78.20
15121;DHT22;7661;48.904;9.414;2022-09-03T00:43:48;18.50;78.30
15121;DHT22;7661;48.904;9.414;2022-09-03T00:46:22;18.50;78.30
15121;DHT22;7661;48.904;9.414;2022-09-03T00:49:24;18.40;78.70
15121;DHT22;7661;48.904;9.414;2022-09-03T00:52:01;18.40;79.40
15121;DHT22;7661;48.904;9.414;2022-09-03T00:54:38;18.30;79.60
15121;DHT22;7661;48.904;9.414;2022-09-03T00:57:15;18.20;80.40
15121;DHT22;7661;48.904;9.414;2022-09-03T00:59:56;18.10;80.80
15121;DHT22;7661;48.904;9.414;2022-09-03T01:02:36;18.10;80.80
15121;DHT22;7661;48.904;9.414;2022-09-03T01:05:19;18.00;81.20
15121;DHT22;7661;48.904;9.414;2022-09-03T01:07:53;18.10;81.40
15121;DHT22;7661;48.904;9.414;2022-09-03T01:10:29;18.00;81.50
15121;DHT22;7661;48.904;9.414;2022-09-03T01:13:08;18.00;82.00
15121;DHT22;7661;48.904;9.414;2022-09-03T01:15:47;18.00;81.90
15121;DHT22;7661;48.904;9.414;2022-09-03T01:18:27;18.00;82.00
15121;DHT22;7661;48.904;9.414;2022-09-03T01:21:09;18.00;81.70
15121;DHT22;7661;48.904;9.414;2022-09-03T01:26:51;18.00;82.20
15121;DHT22;7661;48.904;9.414;2022-09-03T01:29:27;18.00;82.20
15121;DHT22;7661;48.904;9.414;2022-09-03T01:32:02;18.00;82.30
15121;DHT22;7661;48.904;9.414;2022-09-03T01:34:43;18.10;82.50
15121;DHT22;7661;48.904;9.414;2022-09-03T01:37:17;18.00;82.70
15121;DHT22;7661;48.904;9.414;2022-09-03T01:39:54;18.00;82.70
15121;DHT22;7661;48.904;9.414;2022-09-03T01:42:33;18.00;82.70
15121;DHT22;7661;48.904;9.414;2022-09-03T01:45:21;18.00;82.80
15121;DHT22;7661;48.904;9.414;2022-09-03T01:48:07;18.00;82.80
15121;DHT22;7661;48.904;9.414;2022-09-03T01:50:43;18.00;83.10
15121;DHT22;7661;48.904;9.414;2022-09-03T01:53:22;18.00;83.00
15121;DHT22;7661;48.904;9.414;2022-09-03T01:56:01;18.00;83.20
15121;DHT22;7661;48.904;9.414;2022-09-03T01:58:36;18.00;83.30
15121;DHT22;7661;48.904;9.414;2022-09-03T02:01:13;18.10;83.70
15121;DHT22;7661;48.904;9.414;2022-09-03T02:03:44;18.10;83.10
15121;DHT22;7661;48.904;9.414;2022-09-03T02:06:12;18.10;83.60
15121;DHT22;7661;48.904;9.414;2022-09-03T02:08:40;18.10;83.90
15121;DHT22;7661;48.904;9.414;2022-09-03T02:11:08;18.10;84.00
15121;DHT22;7661;48.904;9.414;2022-09-03T02:13:38;18.10;84.40
15121;DHT22;7661;48.904;9.414;2022-09-03T02:16:12;18.10;84.50
15121;DHT22;7661;48.904;9.414;2022-09-03T02:18:41;18.10;84.50
15121;DHT22;7661;48.904;9.414;2022-09-03T02:21:12;18.10;85.00
15121;DHT22;7661;48.904;9.414;2022-09-03T02:23:40;18.10;84.40
15121;DHT22;7661;48.904;9.414;2022-09-03T02:26:09;18.10;84.50
15121;DHT22;7661;48.904;9.414;2022-09-03T02:28:36;18.10;84.80
15121;DHT22;7661;48.904;9.414;2022-09-03T02:31:04;18.10;84.90
15121;DHT22;7661;48.904;9.414;2022-09-03T02:33:36;18.10;85.20
15121;DHT22;7661;48.904;9.414;2022-09-03T02:36:05;18.10;85.20
15121;DHT22;7661;48.904;9.414;2022-09-03T02:38:33;18.10;85.10
15121;DHT22;7661;48.904;9.414;2022-09-03T02:41:00;18.10;85.40
15121;DHT22;7661;48.904;9.414;2022-09-03T02:43:40;18.10;85.50
15121;DHT22;7661;48.904;9.414;2022-09-03T02:46:13;18.10;85.70
15121;DHT22;7661;48.904;9.414;2022-09-03T02:48:44;18.10;85.60
15121;DHT22;7661;48.904;9.414;2022-09-03T02:51:11;18.10;85.40
15121;DHT22;7661;48.904;9.414;2022-09-03T02:53:38;18.20;85.00
15121;DHT22;7661;48.904;9.414;2022-09-03T02:56:05;18.20;85.30
15121;DHT22;7661;48.904;9.414;2022-09-03T02:58:32;18.20;85.50
15121;DHT22;7661;48.904;9.414;2022-09-03T03:01:00;18.20;85.50
15121;DHT22;7661;48.904;9.414;2022-09-03T03:03:26;18.20;85.90
15121;DHT22;7661;48.904;9.414;2022-09-03T03:05:57;18.20;85.60
15121;DHT22;7661;48.904;9.414;2022-09-03T03:08:25;18.10;85.90
15121;DHT22;7661;48.904;9.414;2022-09-03T03:10:55;18.00;86.30
15121;DHT22;7661;48.904;9.414;2022-09-03T03:13:24;18.00;86.70
15121;DHT22;7661;48.904;9.414;2022-09-03T03:15:51;17.90;87.40
15121;DHT22;7661;48.904;9.414;2022-09-03T03:18:21;17.90;87.50
15121;DHT22;7661;48.904;9.414;2022-09-03T03:20:48;17.90;88.10
15121;DHT22;7661;48.904;9.414;2022-09-03T03:23:17;17.90;88.30
15121;DHT22;7661;48.904;9.414;2022-09-03T03:25:44;17.90;87.50
15121;DHT22;7661;48.904;9.414;2022-09-03T03:28:11;17.90;87.70
15121;DHT22;7661;48.904;9.414;2022-09-03T03:30:39;18.10;87.30
15121;DHT22;7661;48.904;9.414;2022-09-03T03:33:07;18.10;87.40
15121;DHT22;7661;48.904;9.414;2022-09-03T03:35:34;18.10;87.60
15121;DHT22;7661;48.904;9.414;2022-09-03T03:38:02;18.00;87.90
15121;DHT22;7661;48.904;9.414;2022-09-03T03:40:31;18.00;88.20
15121;DHT22;7661;48.904;9.414;2022-09-03T03:42:59;17.90;88.50
15121;DHT22;7661;48.904;9.414;2022-09-03T03:45:25;17.80;88.80
15121;DHT22;7661;48.904;9.414;2022-09-03T03:47:56;17.80;89.00
15121;DHT22;7661;48.904;9.414;2022-09-03T03:50:23;17.70;89.00
15121;DHT22;7661;48.904;9.414;2022-09-03T03:52:50;17.70;89.20
15121;DHT22;7661;48.904;9.414;2022-09-03T03:55:17;17.70;89.50
15121;DHT22;7661;48.904;9.414;2022-09-03T03:57:45;17.60;90.10
15121;DHT22;7661;48.904;9.414;2022-09-03T04:00:14;17.60;90.40
15121;DHT22;7661;48.904;9.414;2022-09-03T04:02:41;17.60;90.20
15121;DHT22;7661;48.904;9.414;2022-09-03T04:05:08;17.60;90.50
15121;DHT22;7661;48.904;9.414;2022-09-03T04:07:35;17.50;90.30
15121;DHT22;7661;48.904;9.414;2022-09-03T04:10:02;17.50;90.50
15121;DHT22;7661;48.904;9.414;2022-09-03T04:12:29;17.50;90.70
15121;DHT22;7661;48.904;9.414;2022-09-03T04:14:57;17.50;90.90
15121;DHT22;7661;48.904;9.414;2022-09-03T04:17:24;17.60;90.90
15121;DHT22;7661;48.904;9.414;2022-09-03T04:19:51;17.60;90.90
15121;DHT22;7661;48.904;9.414;2022-09-03T04:22:18;17.60;90.90
15121;DHT22;7661;48.904;9.414;2022-09-03T04:24:45;17.50;91.20
15121;DHT22;7661;48.904;9.414;2022-09-03T04:27:12;17.60;91.30
15121;DHT22;7661;48.904;9.414;2022-09-03T04:29:39;17.50;91.40
15121;DHT22;7661;48.904;9.414;2022-09-03T04:32:07;17.50;91.50
15121;DHT22;7661;48.904;9.414;2022-09-03T04:34:51;17.50;91.60
15121;DHT22;7661;48.904;9.414;2022-09-03T04:37:18;17.50;91.80
15121;DHT22;7661;48.904;9.414;2022-09-03T04:39:45;17.50;91.90
15121;DHT22;7661;48.904;9.414;2022-09-03T04:42:12;17.50;92.00
15121;DHT22;7661;48.904;9.414;2022-09-03T04:44:39;17.50;92.20
15121;DHT22;7661;48.904;9.414;2022-09-03T04:47:07;17.40;92.30
15121;DHT22;7661;48.904;9.414;2022-09-03T04:49:34;17.50;92.50
15121;DHT22;7661;48.904;9.414;2022-09-03T04:52:01;17.40;92.50
15121;DHT22;7661;48.904;9.414;2022-09-03T04:54:28;17.40;92.80
15121;DHT22;7661;48.904;9.414;2022-09-03T04:56:55;17.40;92.90
15121;DHT22;7661;48.904;9.414;2022-09-03T04:59:22;17.40;93.00
15121;DHT22;7661;48.904;9.414;2022-09-03T05:01:49;17.50;92.90
15121;DHT22;7661;48.904;9.414;2022-09-03T05:04:18;17.50;93.00
15121;DHT22;7661;48.904;9.414;2022-09-03T05:06:45;17.50;93.10
15121;DHT22;7661;48.904;9.414;2022-09-03T05:09:12;17.50;93.40
15121;DHT22;7661;48.904;9.414;2022-09-03T05:11:39;17.40;93.50
15121;DHT22;7661;48.904;9.414;2022-09-03T05:14:06;17.40;93.60
15121;DHT22;7661;48.904;9.414;2022-09-03T05:16:36;17.40;93.60
15121;DHT22;7661;48.904;9.414;2022-09-03T05:19:03;17.30;93.80
15121;DHT22;7661;48.904;9.414;2022-09-03T05:21:34;17.40;93.90
15121;DHT22;7661;48.904;9.414;2022-09-03T05:24:02;17.40;94.00
15121;DHT22;7661;48.904;9.414;2022-09-03T05:26:31;17.40;94.10
15121;DHT22;7661;48.904;9.414;2022-09-03T05:29:00;17.30;94.30
15121;DHT22;7661;48.904;9.414;2022-09-03T05:31:29;17.30;94.40
15121;DHT22;7661;48.904;9.414;2022-09-03T05:33:58;17.40;94.40
15121;DHT22;7661;48.904;9.414;2022-09-03T05:36:27;17.40;94.50
15121;DHT22;7661;48.904;9.414;2022-09-03T05:38:57;17.40;95.00
15121;DHT22;7661;48.904;9.414;2022-09-03T05:41:25;17.30;95.00
15121;DHT22;7661;48.904;9.414;2022-09-03T05:43:53;17.40;95.00
15121;DHT22;7661;48.904;9.414;2022-09-03T05:46:21;17.50;95.10
15121;DHT22;7661;48.904;9.414;2022-09-03T05:48:51;17.60;95.20
15121;DHT22;7661;48.904;9.414;2022-09-03T05:51:18;17.60;95.30
15121;DHT22;7661;48.904;9.414;2022-09-03T05:53:46;17.60;95.40
15121;DHT22;7661;48.904;9.414;2022-09-03T05:56:16;17.60;95.40
15121;DHT22;7661;48.904;9.414;2022-09-03T05:58:45;17.70;95.80
15121;DHT22;7661;48.904;9.414;2022-09-03T06:01:14;17.80;95.50
15121;DHT22;7661;48.904;9.414;2022-09-03T06:03:42;18.10;95.20
15121;DHT22;7661;48.904;9.414;2022-09-03T06:06:10;18.10;95.20
15121;DHT22;7661;48.904;9.414;2022-09-03T06:08:38;18.10;95.30
15121;DHT22;7661;48.904;9.414;2022-09-03T06:11:06;18.10;95.40
15121;DHT22;7661;48.904;9.414;2022-09-03T06:13:35;18.10;95.70
15121;DHT22;7661;48.904;9.414;2022-09-03T06:16:03;18.00;95.90
15121;DHT22;7661;48.904;9.414;2022-09-03T06:18:31;18.10;95.80
15121;DHT22;7661;48.904;9.414;2022-09-03T06:20:59;18.20;95.90
15121;DHT22;7661;48.904;9.414;2022-09-03T06:23:28;18.20;95.90
15121;DHT22;7661;48.904;9.414;2022-09-03T06:26:02;18.20;96.30
15121;DHT22;7661;48.904;9.414;2022-09-03T06:28:30;18.20;96.20
15121;DHT22;7661;48.904;9.414;2022-09-03T06:30:58;18.20;96.20
15121;DHT22;7661;48.904;9.414;2022-09-03T06:33:26;18.20;96.40
15121;DHT22;7661;48.904;9.414;2022-09-03T06:35:55;18.20;96.50
15121;DHT22;7661;48.904;9.414;2022-09-03T06:38:25;18.20;96.80
15121;DHT22;7661;48.904;9.414;2022-09-03T06:40:53;18.20;97.10
15121;DHT22;7661;48.904;9.414;2022-09-03T06:43:20;18.10;97.40
15121;DHT22;7661;48.904;9.414;2022-09-03T06:45:55;18.20;97.40
15121;DHT22;7661;48.904;9.414;2022-09-03T06:48:24;18.20;97.50
15121;DHT22;7661;48.904;9.414;2022-09-03T06:50:55;18.30;97.50
15121;DHT22;7661;48.904;9.414;2022-09-03T06:53:23;18.40;97.40
15121;DHT22;7661;48.904;9.414;2022-09-03T06:55:54;18.40;97.40
15121;DHT22;7661;48.904;9.414;2022-09-03T06:58:21;18.40;97.70
15121;DHT22;7661;48.904;9.414;2022-09-03T07:00:49;18.50;97.90
15121;DHT22;7661;48.904;9.414;2022-09-03T07:03:17;18.50;97.90
15121;DHT22;7661;48.904;9.414;2022-09-03T07:05:46;18.50;97.90
15121;DHT22;7661;48.904;9.414;2022-09-03T07:08:13;18.60;98.10
15121;DHT22;7661;48.904;9.414;2022-09-03T07:10:45;18.60;98.20
15121;DHT22;7661;48.904;9.414;2022-09-03T07:13:12;18.60;98.30
15121;DHT22;7661;48.904;9.414;2022-09-03T07:15:39;18.70;98.40
15121;DHT22;7661;48.904;9.414;2022-09-03T07:18:06;18.80;98.30
15121;DHT22;7661;48.904;9.414;2022-09-03T07:20:33;18.80;98.30
15121;DHT22;7661;48.904;9.414;2022-09-03T07:23:02;18.90;98.60
15121;DHT22;7661;48.904;9.414;2022-09-03T07:25:29;19.00;98.60
15121;DHT22;7661;48.904;9.414;2022-09-03T07:27:56;19.10;98.60
15121;DHT22;7661;48.904;9.414;2022-09-03T07:30:23;19.30;98.50
15121;DHT22;7661;48.904;9.414;2022-09-03T07:32:51;19.40;98.20
15121;DHT22;7661;48.904;9.414;2022-09-03T07:35:18;19.40;98.10
15121;DHT22;7661;48.904;9.414;2022-09-03T07:37:45;19.40;98.20
15121;DHT22;7661;48.904;9.414;2022-09-03T07:40:13;19.50;98.30
15121;DHT22;7661;48.904;9.414;2022-09-03T07:42:43;19.70;98.40
15121;DHT22;7661;48.904;9.414;2022-09-03T07:45:13;19.80;98.50
15121;DHT22;7661;48.904;9.414;2022-09-03T07:47:45;19.80;98.40
15121;DHT22;7661;48.904;9.414;2022-09-03T07:50:13;20.00;98.40
15121;DHT22;7661;48.904;9.414;2022-09-03T07:52:40;20.10;98.50
15121;DHT22;7661;48.904;9.414;2022-09-03T07:55:08;20.50;98.50
15121;DHT22;7661;48.904;9.414;2022-09-03T07:57:37;21.00;98.20
15121;DHT22;7661;48.904;9.414;2022-09-03T08:00:04;21.60;97.50
15121;DHT22;7661;48.904;9.414;2022-09-03T08:02:32;21.90;97.00
15121;DHT22;7661;48.904;9.414;2022-09-03T08:04:59;22.10;96.00
15121;DHT22;7661;48.904;9.414;2022-09-03T08:07:28;21.70;96.10
15121;DHT22;7661;48.904;9.414;2022-09-03T08:09:54;21.70;96.70
15121;DHT22;7661;48.904;9.414;2022-09-03T08:12:21;21.70;96.10
15121;DHT22;7661;48.904;9.414;2022-09-03T08:14:50;21.60;96.70
15121;DHT22;7661;48.904;9.414;2022-09-03T08:17:17;21.50;96.80
15121;DHT22;7661;48.904;9.414;2022-09-03T08:19:43;21.30;96.70
15121;DHT22;7661;48.904;9.414;2022-09-03T08:22:12;21.40;96.80
15121;DHT22;7661;48.904;9.414;2022-09-03T08:24:38;21.70;96.70
15121;DHT22;7661;48.904;9.414;2022-09-03T08:27:07;21.90;96.60
15121;DHT22;7661;48.904;9.414;2022-09-03T08:29:34;22.10;96.80
15121;DHT22;7661;48.904;9.414;2022-09-03T08:32:03;22.40;96.00
15121;DHT22;7661;48.904;9.414;2022-09-03T08:34:30;22.50;96.20
15121;DHT22;7661;48.904;9.414;2022-09-03T08:36:56;22.30;95.90
15121;DHT22;7661;48.904;9.414;2022-09-03T08:39:25;22.50;96.10
15121;DHT22;7661;48.904;9.414;2022-09-03T08:44:49;22.80;95.90
15121;DHT22;7661;48.904;9.414;2022-09-03T08:47:22;22.90;95.30
15121;DHT22;7661;48.904;9.414;2022-09-03T08:49:54;22.80;96.00
15121;DHT22;7661;48.904;9.414;2022-09-03T08:52:27;23.10;95.80
15121;DHT22;7661;48.904;9.414;2022-09-03T08:55:03;23.30;95.40
15121;DHT22;7661;48.904;9.414;2022-09-03T08:57:40;23.20;94.90
15121;DHT22;7661;48.904;9.414;2022-09-03T09:00:09;23.10;95.80
15121;DHT22;7661;48.904;9.414;2022-09-03T09:02:47;23.30;95.90
15121;DHT22;7661;48.904;9.414;2022-09-03T09:05:18;23.50;95.80
15121;DHT22;7661;48.904;9.414;2022-09-03T09:07:50;23.60;95.40
15121;DHT22;7661;48.904;9.414;2022-09-03T09:10:23;23.70;95.10
15121;DHT22;7661;48.904;9.414;2022-09-03T09:13:02;23.80;95.30
15121;DHT22;7661;48.904;9.414;2022-09-03T09:15:38;24.00;94.90
15121;DHT22;7661;48.904;9.414;2022-09-03T09:18:13;24.50;94.60
15121;DHT22;7661;48.904;9.414;2022-09-03T09:20:47;25.20;94.30
15121;DHT22;7661;48.904;9.414;2022-09-03T09:23:18;26.30;92.70
15121;DHT22;7661;48.904;9.414;2022-09-03T09:25:48;27.20;91.70
15121;DHT22;7661;48.904;9.414;2022-09-03T09:28:17;27.20;90.30
15121;DHT22;7661;48.904;9.414;2022-09-03T09:30:46;26.90;90.50
15121;DHT22;7661;48.904;9.414;2022-09-03T09:33:15;26.60;90.00
15121;DHT22;7661;48.904;9.414;2022-09-03T09:35:43;26.60;91.00
15121;DHT22;7661;48.904;9.414;2022-09-03T09:38:11;26.30;90.50
15121;DHT22;7661;48.904;9.414;2022-09-03T09:40:40;25.90;91.10
15121;DHT22;7661;48.904;9.414;2022-09-03T09:43:12;25.80;91.10
15121;DHT22;7661;48.904;9.414;2022-09-03T09:45:42;25.80;91.50
15121;DHT22;7661;48.904;9.414;2022-09-03T09:48:19;26.10;91.60
15121;DHT22;7661;48.904;9.414;2022-09-03T09:50:47;26.90;90.80
15121;DHT22;7661;48.904;9.414;2022-09-03T09:53:17;27.40;90.70
15121;DHT22;7661;48.904;9.414;2022-09-03T09:55:50;28.10;88.30
15121;DHT22;7661;48.904;9.414;2022-09-03T09:58:19;28.10;86.30
15121;DHT22;7661;48.904;9.414;2022-09-03T10:00:55;27.80;86.90
15121;DHT22;7661;48.904;9.414;2022-09-03T10:03:24;27.40;86.80
15121;DHT22;7661;48.904;9.414;2022-09-03T10:06:02;27.20;87.60
15121;DHT22;7661;48.904;9.414;2022-09-03T10:08:50;27.20;88.20
15121;DHT22;7661;48.904;9.414;2022-09-03T10:11:19;28.00;85.80
15121;DHT22;7661;48.904;9.414;2022-09-03T10:13:50;28.70;86.00
15121;DHT22;7661;48.904;9.414;2022-09-03T10:16:21;29.80;84.00
15121;DHT22;7661;48.904;9.414;2022-09-03T10:18:59;30.30;79.20
15121;DHT22;7661;48.904;9.414;2022-09-03T10:21:34;30.00;79.00
15121;DHT22;7661;48.904;9.414;2022-09-03T10:24:14;30.30;78.10
15121;DHT22;7661;48.904;9.414;2022-09-03T10:26:42;29.60;77.50
15121;DHT22;7661;48.904;9.414;2022-09-03T10:29:14;29.30;80.10
15121;DHT22;7661;48.904;9.414;2022-09-03T10:34:36;30.20;77.70
15121;DHT22;7661;48.904;9.414;2022-09-03T10:37:13;30.20;76.20
15121;DHT22;7661;48.904;9.414;2022-09-03T10:39:56;30.00;74.60
15121;DHT22;7661;48.904;9.414;2022-09-03T10:42:36;29.50;75.30
15121;DHT22;7661;48.904;9.414;2022-09-03T10:45:17;28.80;77.20
15121;DHT22;7661;48.904;9.414;2022-09-03T10:48:10;28.50;77.20
15121;DHT22;7661;48.904;9.414;2022-09-03T10:50:46;28.80;76.70
15121;DHT22;7661;48.904;9.414;2022-09-03T10:53:31;28.80;78.50
15121;DHT22;7661;48.904;9.414;2022-09-03T10:56:06;29.30;77.80
15121;DHT22;7661;48.904;9.414;2022-09-03T10:58:51;30.00;76.60
15121;DHT22;7661;48.904;9.414;2022-09-03T11:01:28;30.30;77.30
15121;DHT22;7661;48.904;9.414;2022-09-03T11:04:20;30.30;73.30
15121;DHT22;7661;48.904;9.414;2022-09-03T11:06:54;30.50;73.90
15121;DHT22;7661;48.904;9.414;2022-09-03T11:09:27;30.50;73.20
15121;DHT22;7661;48.904;9.414;2022-09-03T11:11:58;30.40;72.20
15121;DHT22;7661;48.904;9.414;2022-09-03T11:14:34;30.30;73.70
15121;DHT22;7661;48.904;9.414;2022-09-03T11:17:06;30.60;73.60
15121;DHT22;7661;48.904;9.414;2022-09-03T11:19:39;30.40;73.30
15121;DHT22;7661;48.904;9.414;2022-09-03T11:22:12;30.50;74.30
15121;DHT22;7661;48.904;9.414;2022-09-03T11:24:43;30.20;72.00
15121;DHT22;7661;48.904;9.414;2022-09-03T11:27:20;30.00;73.50
15121;DHT22;7661;48.904;9.414;2022-09-03T11:29:54;29.70;71.50
15121;DHT22;7661;48.904;9.414;2022-09-03T11:32:38;29.20;74.10
15121;DHT22;7661;48.904;9.414;2022-09-03T11:35:13;28.60;75.50
15121;DHT22;7661;48.904;9.414;2022-09-03T11:37:51;28.40;76.70
15121;DHT22;7661;48.904;9.414;2022-09-03T11:40:18;28.20;77.10
15121;DHT22;7661;48.904;9.414;2022-09-03T11:42:46;28.20;78.70
15121;DHT22;7661;48.904;9.414;2022-09-03T11:45:22;28.20;78.60
15121;DHT22;7661;48.904;9.414;2022-09-03T11:47:59;28.20;78.10
15121;DHT22;7661;48.904;9.414;2022-09-03T11:50:27;28.00;78.10
15121;DHT22;7661;48.904;9.414;2022-09-03T11:53:08;27.80;79.10
15121;DHT22;7661;48.904;9.414;2022-09-03T11:55:51;27.60;78.70
15121;DHT22;7661;48.904;9.414;2022-09-03T11:58:23;27.10;80.40
15121;DHT22;7661;48.904;9.414;2022-09-03T12:00:51;26.70;80.80
15121;DHT22;7661;48.904;9.414;2022-09-03T12:03:23;26.60;82.00
15121;DHT22;7661;48.904;9.414;2022-09-03T12:06:09;26.50;82.20
15121;DHT22;7661;48.904;9.414;2022-09-03T12:08:50;26.30;82.70
15121;DHT22;7661;48.904;9.414;2022-09-03T12:11:40;25.80;83.70
15121;DHT22;7661;48.904;9.414;2022-09-03T12:14:15;25.80;84.70
15121;DHT22;7661;48.904;9.414;2022-09-03T12:19:37;25.20;86.00
15121;DHT22;7661;48.904;9.414;2022-09-03T12:22:12;24.90;87.30
15121;DHT22;7661;48.904;9.414;2022-09-03T12:24:42;24.90;88.20
15121;DHT22;7661;48.904;9.414;2022-09-03T12:27:13;24.80;88.30
15121;DHT22;7661;48.904;9.414;2022-09-03T12:29:51;24.70;88.60
15121;DHT22;7661;48.904;9.414;2022-09-03T12:32:25;24.50;89.80
15121;DHT22;7661;48.904;9.414;2022-09-03T12:34:53;24.20;90.30
15121;DHT22;7661;48.904;9.414;2022-09-03T12:37:21;24.10;90.60
15121;DHT22;7661;48.904;9.414;2022-09-03T12:39:52;24.10;90.60
15121;DHT22;7661;48.904;9.414;2022-09-03T12:42:23;24.10;91.20
15121;DHT22;7661;48.904;9.414;2022-09-03T12:44:51;24.00;91.50
15121;DHT22;7661;48.904;9.414;2022-09-03T12:47:20;23.80;91.80
15121;DHT22;7661;48.904;9.414;2022-09-03T12:49:48;23.80;92.00
15121;DHT22;7661;48.904;9.414;2022-09-03T12:52:19;23.70;92.10
15121;DHT22;7661;48.904;9.414;2022-09-03T12:54:53;23.60;92.40
15121;DHT22;7661;48.904;9.414;2022-09-03T12:57:24;23.60;92.80
15121;DHT22;7661;48.904;9.414;2022-09-03T12:59:56;23.50;93.20
15121;DHT22;7661;48.904;9.414;2022-09-03T13:02:26;23.40;93.60
15121;DHT22;7661;48.904;9.414;2022-09-03T13:04:54;23.30;94.20
15121;DHT22;7661;48.904;9.414;2022-09-03T13:07:26;23.00;95.20
15121;DHT22;7661;48.904;9.414;2022-09-03T13:10:03;22.50;96.10
15121;DHT22;7661;48.904;9.414;2022-09-03T13:12:32;22.20;97.10
15121;DHT22;7661;48.904;9.414;2022-09-03T13:15:17;21.90;97.80
15121;DHT22;7661;48.904;9.414;2022-09-03T13:18:09;21.60;98.80
15121;DHT22;7661;48.904;9.414;2022-09-03T13:20:51;21.30;99.30
15121;DHT22;7661;48.904;9.414;2022-09-03T13:23:36;21.10;99.90
15121;DHT22;7661;48.904;9.414;2022-09-03T13:26:17;20.90;99.90
15121;DHT22;7661;48.904;9.414;2022-09-03T13:28:59;20.50;99.90
15121;DHT22;7661;48.904;9.414;2022-09-03T13:31:35;20.40;99.90
15121;DHT22;7661;48.904;9.414;2022-09-03T13:34:07;20.20;99.90
15121;DHT22;7661;48.904;9.414;2022-09-03T13:36:42;20.10;99.90
15121;DHT22;7661;48.904;9.414;2022-09-03T13:39:23;20.00;99.90
15121;DHT22;7661;48.904;9.414;2022-09-03T13:41:55;19.90;99.90
15121;DHT22;7661;48.904;9.414;2022-09-03T13:44:34;20.00;99.90
15121;DHT22;7661;48.904;9.414;2022-09-03T13:47:07;20.10;99.90
15121;DHT22;7661;48.904;9.414;2022-09-03T13:49:38;20.10;99.90
15121;DHT22;7661;48.904;9.414;2022-09-03T13:52:40;20.00;99.90
15121;DHT22;7661;48.904;9.414;2022-09-03T13:55:12;20.10;99.90
15121;DHT22;7661;48.904;9.414;2022-09-03T13:57:46;20.30;99.90
15121;DHT22;7661;48.904;9.414;2022-09-03T14:00:22;20.30;99.90
15121;DHT22;7661;48.904;9.414;2022-09-03T14:02:52;20.30;99.90
15121;DHT22;7661;48.904;9.414;2022-09-03T14:05:37;20.50;99.90
15121;DHT22;7661;48.904;9.414;2022-09-03T14:08:12;20.60;99.90
15121;DHT22;7661;48.904;9.414;2022-09-03T14:10:53;21.80;99.90
15121;DHT22;7661;48.904;9.414;2022-09-03T14:13:31;23.40;99.90
15121;DHT22;7661;48.904;9.414;2022-09-03T14:16:06;24.70;99.90
15121;DHT22;7661;48.904;9.414;2022-09-03T14:18:44;25.40;99.90
15121;DHT22;7661;48.904;9.414;2022-09-03T14:21:18;24.80;99.90
15121;DHT22;7661;48.904;9.414;2022-09-03T14:23:50;24.50;99.90
15121;DHT22;7661;48.904;9.414;2022-09-03T14:26:23;24.00;99.90
15121;DHT22;7661;48.904;9.414;2022-09-03T14:29:01;23.30;99.90
15121;DHT22;7661;48.904;9.414;2022-09-03T14:31:40;22.70;99.90
15121;DHT22;7661;48.904;9.414;2022-09-03T14:34:24;22.30;99.90
15121;DHT22;7661;48.904;9.414;2022-09-03T14:36:56;22.00;99.90
15121;DHT22;7661;48.904;9.414;2022-09-03T14:39:31;22.10;99.90
15121;DHT22;7661;48.904;9.414;2022-09-03T14:42:17;22.00;99.90
15121;DHT22;7661;48.904;9.414;2022-09-03T14:45:06;21.60;99.90
15121;DHT22;7661;48.904;9.414;2022-09-03T14:47:46;21.40;99.90
15121;DHT22;7661;48.904;9.414;2022-09-03T14:50:33;21.50;99.90
15121;DHT22;7661;48.904;9.414;2022-09-03T14:53:39;21.50;99.90
15121;DHT22;7661;48.904;9.414;2022-09-03T14:56:21;21.30;99.90
15121;DHT22;7661;48.904;9.414;2022-09-03T14:59:12;21.30;99.90
15121;DHT22;7661;48.904;9.414;2022-09-03T15:01:41;21.20;99.90
15121;DHT22;7661;48.904;9.414;2022-09-03T15:04:37;21.20;99.90
15121;DHT22;7661;48.904;9.414;2022-09-03T15:07:21;21.10;99.90
15121;DHT22;7661;48.904;9.414;2022-09-03T15:09:58;21.10;99.90
15121;DHT22;7661;48.904;9.414;2022-09-03T15:12:33;21.10;99.90
15121;DHT22;7661;48.904;9.414;2022-09-03T15:15:07;21.00;99.90
15121;DHT22;7661;48.904;9.414;2022-09-03T15:17:59;21.10;99.90
15121;DHT22;7661;48.904;9.414;2022-09-03T15:20:32;21.20;99.90
15121;DHT22;7661;48.904;9.414;2022-09-03T15:23:22;21.20;99.90
15121;DHT22;7661;48.904;9.414;2022-09-03T15:29:14;21.30;99.90
15121;DHT22;7661;48.904;9.414;2022-09-03T15:31:48;21.40;99.90
15121;DHT22;7661;48.904;9.414;2022-09-03T15:34:33;21.50;99.90
15121;DHT22;7661;48.904;9.414;2022-09-03T15:37:09;21.60;99.90
15121;DHT22;7661;48.904;9.414;2022-09-03T15:39:40;21.80;99.90
15121;DHT22;7661;48.904;9.414;2022-09-03T15:42:14;22.00;99.90
15121;DHT22;7661;48.904;9.414;2022-09-03T15:44:46;22.50;99.90
15121;DHT22;7661;48.904;9.414;2022-09-03T15:47:39;23.60;99.90
15121;DHT22;7661;48.904;9.414;2022-09-03T15:50:15;25.10;99.90
15121;DHT22;7661;48.904;9.414;2022-09-03T15:52:55;26.10;99.90
15121;DHT22;7661;48.904;9.414;2022-09-03T15:55:30;26.80;99.90
15121;DHT22;7661;48.904;9.414;2022-09-03T15:58:00;27.20;99.90
15121;DHT22;7661;48.904;9.414;2022-09-03T16:00:48;27.40;99.90
15121;DHT22;7661;48.904;9.414;2022-09-03T16:03:21;27.80;99.90
15121;DHT22;7661;48.904;9.414;2022-09-03T16:06:01;28.20;99.90
15121;DHT22;7661;48.904;9.414;2022-09-03T16:08:37;28.50;99.90
15121;DHT22;7661;48.904;9.414;2022-09-03T16:11:09;28.70;99.90
15121;DHT22;7661;48.904;9.414;2022-09-03T16:13:47;28.70;99.90
15121;DHT22;7661;48.904;9.414;2022-09-03T16:16:21;28.40;99.90
15121;DHT22;7661;48.904;9.414;2022-09-03T16:18:57;27.80;99.90
15121;DHT22;7661;48.904;9.414;2022-09-03T16:21:31;27.40;99.90
15121;DHT22;7661;48.904;9.414;2022-09-03T16:24:04;27.00;99.90
15121;DHT22;7661;48.904;9.414;2022-09-03T16:26:36;26.50;99.90
15121;DHT22;7661;48.904;9.414;2022-09-03T16:29:08;25.90;99.90
15121;DHT22;7661;48.904;9.414;2022-09-03T16:31:49;25.60;99.90
15121;DHT22;7661;48.904;9.414;2022-09-03T16:34:23;25.20;99.90